Time;durP1;ratioP1;P1;durP2;ratioP2;P2;SDS_P1;SDS_P2;PMS_P1;PMS_P2;Temp;Humidity;BMP_temperature;BMP_pressure;BME280_temperature;BME280_humidity;BME280_pressure;Samples;Min_cycle;Max_cycle;Signal;HPM_P1;HPM_P2
2022/02/12 00:00:08;;;;;;;24.77;8.20;;;5.60;94.10;;;;;;5068508;28;20415;-71
2022/02/12 00:02:41;;;;;;;21.92;8.20;;;5.50;94.30;;;;;;5068701;28;20414;-73
2022/02/12 00:05:07;;;;;;;20.80;7.55;;;5.50;94.50;;;;;;5069309;28;20407;-70
2022/02/12 00:07:33;;;;;;;21.08;7.00;;;5.50;94.60;;;;;;5069082;28;20412;-70
2022/02/12 00:09:59;;;;;;;26.63;7.53;;;5.40;94.70;;;;;;5068876;28;20453;-72
2022/02/12 00:12:25;;;;;;;24.25;7.25;;;5.50;94.90;;;;;;5050452;28;20411;-70
2022/02/12 00:14:51;;;;;;;25.60;7.93;;;5.40;94.80;;;;;;5050715;28;20486;-72
2022/02/12 00:17:16;;;;;;;23.88;7.88;;;5.40;94.80;;;;;;5069027;28;20487;-71
2022/02/12 00:19:42;;;;;;;20.07;7.27;;;5.40;94.90;;;;;;5067665;28;20807;-70
2022/02/12 00:22:08;;;;;;;22.38;7.13;;;5.40;95.00;;;;;;5067861;28;20412;-71
2022/02/12 00:24:34;;;;;;;21.17;7.45;;;5.40;95.10;;;;;;5066987;28;20414;-72
2022/02/12 00:26:59;;;;;;;21.57;6.80;;;5.40;95.10;;;;;;5069566;28;20411;-70
2022/02/12 00:29:25;;;;;;;22.02;7.22;;;5.30;95.20;;;;;;5067105;28;20798;-70
2022/02/12 00:31:51;;;;;;;18.33;6.33;;;5.30;95.30;;;;;;5069631;28;20506;-72
2022/02/12 00:34:17;;;;;;;23.35;6.95;;;5.30;95.30;;;;;;5068618;28;20415;-70
2022/02/12 00:36:42;;;;;;;26.63;6.50;;;5.30;95.50;;;;;;5068960;28;20391;-72
2022/02/12 00:39:09;;;;;;;19.02;6.45;;;5.30;95.50;;;;;;5066605;28;20904;-69
2022/02/12 00:41:34;;;;;;;27.50;7.00;;;5.30;95.60;;;;;;5068450;28;20407;-70
2022/02/12 00:44:00;;;;;;;22.65;6.75;;;5.30;95.70;;;;;;5068011;28;20506;-70
2022/02/12 00:46:27;;;;;;;21.50;6.27;;;5.30;95.80;;;;;;5068938;28;20654;-69
2022/02/12 00:48:53;;;;;;;18.40;6.30;;;5.30;96.00;;;;;;5068154;28;20472;-72
2022/02/12 00:51:18;;;;;;;21.40;6.22;;;5.20;96.10;;;;;;5068879;28;20392;-70
2022/02/12 00:53:44;;;;;;;16.83;5.93;;;5.20;96.20;;;;;;5068031;28;20423;-69
2022/02/12 00:56:10;;;;;;;22.25;6.35;;;5.20;96.30;;;;;;5067935;28;20403;-70
2022/02/12 00:58:35;;;;;;;22.97;6.07;;;5.20;96.40;;;;;;5067729;28;20884;-70
2022/02/12 01:01:01;;;;;;;24.75;6.43;;;5.20;96.60;;;;;;5067525;28;20478;-72
2022/02/12 01:03:26;;;;;;;22.30;6.47;;;5.20;96.70;;;;;;5067697;28;20411;-71
2022/02/12 01:05:53;;;;;;;18.98;5.97;;;5.20;96.80;;;;;;5068636;28;20407;-71
2022/02/12 01:08:18;;;;;;;28.20;6.60;;;5.20;96.80;;;;;;5067896;28;20482;-70
2022/02/12 01:10:44;;;;;;;19.93;5.90;;;5.20;96.70;;;;;;5067604;28;20902;-73
2022/02/12 01:13:10;;;;;;;19.90;5.70;;;5.20;96.80;;;;;;5066840;28;20938;-70
2022/02/12 01:15:36;;;;;;;20.73;6.30;;;5.10;96.80;;;;;;5068182;28;21002;-71
2022/02/12 01:18:03;;;;;;;22.17;6.40;;;5.20;96.80;;;;;;5065628;28;20412;-71
2022/02/12 01:20:29;;;;;;;22.73;6.40;;;5.20;96.80;;;;;;5049418;28;20491;-70
2022/02/12 01:22:54;;;;;;;20.42;6.38;;;5.10;96.90;;;;;;5049051;28;20887;-71
2022/02/12 01:25:20;;;;;;;21.07;6.20;;;5.10;97.00;;;;;;5067310;28;20835;-71
2022/02/12 01:27:46;;;;;;;21.10;6.32;;;5.20;96.90;;;;;;5067570;28;20418;-71
2022/02/12 01:30:12;;;;;;;17.65;6.28;;;5.10;96.90;;;;;;5068624;28;20411;-69
2022/02/12 01:32:38;;;;;;;22.20;6.83;;;5.10;97.00;;;;;;5065653;28;20419;-71
2022/02/12 01:35:07;;;;;;;16.85;7.00;;;5.20;96.90;;;;;;5067177;28;20403;-71
2022/02/12 01:37:34;;;;;;;23.63;6.45;;;5.10;96.90;;;;;;5049430;28;20400;-70
2022/02/12 01:40:00;;;;;;;17.42;6.10;;;5.10;97.00;;;;;;5067253;28;20412;-71
2022/02/12 01:42:28;;;;;;;21.15;6.60;;;5.10;97.00;;;;;;5067261;28;20900;-72
2022/02/12 01:44:54;;;;;;;23.25;6.82;;;5.00;97.10;;;;;;5068263;28;20403;-71
2022/02/12 01:47:19;;;;;;;20.67;6.20;;;5.10;97.10;;;;;;5067643;28;20409;-70
2022/02/12 01:49:46;;;;;;;20.00;6.70;;;5.00;97.10;;;;;;5066086;28;20445;-72
2022/02/12 01:52:13;;;;;;;20.25;5.88;;;5.00;97.20;;;;;;5032268;28;20411;-71
2022/02/12 01:54:40;;;;;;;18.52;6.00;;;5.00;97.20;;;;;;5066067;28;20415;-72
2022/02/12 01:57:07;;;;;;;22.55;6.07;;;5.00;97.30;;;;;;5066300;28;20392;-69
2022/02/12 01:59:34;;;;;;;22.70;6.13;;;4.90;97.30;;;;;;5067149;28;20410;-72
2022/02/12 02:02:01;;;;;;;19.27;6.40;;;4.90;97.20;;;;;;5066158;28;20411;-70
2022/02/12 02:04:29;;;;;;;21.07;6.30;;;4.90;97.30;;;;;;5067821;28;20943;-71
2022/02/12 02:06:55;;;;;;;18.57;5.90;;;4.90;97.40;;;;;;5067642;28;20438;-71
2022/02/12 02:09:21;;;;;;;21.90;6.43;;;4.90;97.40;;;;;;5067245;28;20454;-69
2022/02/12 02:11:48;;;;;;;25.37;6.23;;;4.90;97.50;;;;;;5050191;28;20465;-72
2022/02/12 02:14:15;;;;;;;24.80;6.53;;;4.90;97.60;;;;;;5065589;28;20465;-69
2022/02/12 02:16:43;;;;;;;18.13;5.90;;;4.90;97.70;;;;;;5066042;28;20423;-69
2022/02/12 02:19:09;;;;;;;23.63;6.43;;;4.90;97.70;;;;;;5079720;28;20407;-69
2022/02/12 02:21:38;;;;;;;21.58;5.88;;;4.90;97.70;;;;;;5066631;28;20403;-69
2022/02/12 02:24:05;;;;;;;24.25;6.35;;;4.90;97.70;;;;;;5064448;28;20462;-70
2022/02/12 02:26:32;;;;;;;24.33;5.68;;;4.90;97.70;;;;;;5067739;28;20414;-72
2022/02/12 02:28:58;;;;;;;19.20;6.25;;;4.90;97.80;;;;;;5048542;28;20407;-73
2022/02/12 02:31:24;;;;;;;19.92;5.80;;;4.90;97.80;;;;;;5068052;28;20410;-72
2022/02/12 02:33:50;;;;;;;18.95;5.90;;;4.90;97.90;;;;;;5048788;28;20446;-72
2022/02/12 02:36:16;;;;;;;21.45;6.20;;;4.90;97.80;;;;;;5067020;28;20877;-74
2022/02/12 02:38:42;;;;;;;20.55;6.00;;;4.90;97.90;;;;;;5047424;28;20442;-74
2022/02/12 02:41:09;;;;;;;21.40;5.88;;;4.90;97.90;;;;;;5067727;28;20457;-71
2022/02/12 02:43:35;;;;;;;23.75;6.53;;;4.90;98.00;;;;;;5065725;28;20426;-73
2022/02/12 02:46:02;;;;;;;20.55;6.43;;;4.90;97.90;;;;;;5070662;28;20426;-71
2022/02/12 02:48:28;;;;;;;22.33;6.78;;;4.90;98.00;;;;;;5070630;28;20416;-73
2022/02/12 02:56:22;;;;;;;20.60;6.35;;;4.80;98.00;;;;;;5084434;28;20725;-71
2022/02/12 02:58:49;;;;;;;20.30;6.00;;;4.80;98.10;;;;;;5070402;28;20461;-71
2022/02/12 03:01:19;;;;;;;22.25;6.13;;;4.80;98.10;;;;;;5070190;28;20422;-72
2022/02/12 03:03:47;;;;;;;20.27;6.22;;;4.80;98.00;;;;;;5069538;28;20420;-71
2022/02/12 03:06:14;;;;;;;19.85;5.70;;;4.80;97.90;;;;;;5071006;28;20402;-72
2022/02/12 03:08:40;;;;;;;20.30;6.00;;;4.80;97.90;;;;;;5070453;28;20805;-74
2022/02/12 03:11:07;;;;;;;18.38;5.82;;;4.80;97.90;;;;;;5050485;28;20407;-70
2022/02/12 03:13:33;;;;;;;22.17;5.90;;;4.80;97.90;;;;;;5069389;28;20545;-73
2022/02/12 03:15:59;;;;;;;18.20;5.82;;;4.80;97.90;;;;;;5069289;28;20411;-73
2022/02/12 03:18:25;;;;;;;27.20;6.30;;;4.80;97.80;;;;;;5069440;28;20408;-69
2022/02/12 03:20:51;;;;;;;18.95;5.90;;;4.80;97.70;;;;;;5071114;28;20403;-70
2022/02/12 03:23:17;;;;;;;20.98;5.80;;;4.80;97.60;;;;;;5069823;28;20779;-72
2022/02/12 03:25:43;;;;;;;25.83;5.72;;;4.80;97.50;;;;;;5069668;28;20396;-71
2022/02/12 03:28:10;;;;;;;19.75;5.63;;;4.80;97.50;;;;;;5051091;28;20473;-72
2022/02/12 03:30:38;;;;;;;19.85;6.00;;;4.80;97.50;;;;;;5069876;28;20426;-70
2022/02/12 03:33:04;;;;;;;20.17;5.38;;;4.80;97.50;;;;;;5070003;28;20881;-73
2022/02/12 03:35:31;;;;;;;18.60;5.95;;;4.80;97.60;;;;;;5070495;28;20771;-70
2022/02/12 03:38:12;;;;;;;23.57;5.70;;;4.80;97.60;;;;;;5069215;28;20420;-72
2022/02/12 03:40:44;;;;;;;16.02;5.65;;;4.80;97.50;;;;;;5051197;28;20403;-71
2022/02/12 03:43:10;;;;;;;22.67;5.68;;;4.80;97.50;;;;;;5069524;28;20430;-71
2022/02/12 03:45:37;;;;;;;17.10;5.43;;;4.70;97.40;;;;;;5068650;28;20407;-74
2022/02/12 03:48:04;;;;;;;15.60;5.82;;;4.80;97.50;;;;;;5068305;28;20451;-71
2022/02/12 03:50:33;;;;;;;20.50;6.03;;;4.70;97.40;;;;;;5051831;28;20471;-72
2022/02/12 03:53:01;;;;;;;20.50;5.67;;;4.70;97.40;;;;;;5068718;28;21235;-69
2022/02/12 03:55:27;;;;;;;22.98;5.45;;;4.70;97.30;;;;;;5069796;28;20412;-69
2022/02/12 03:57:54;;;;;;;21.63;5.63;;;4.70;97.50;;;;;;5068694;28;20500;-72
2022/02/12 04:00:20;;;;;;;19.73;5.53;;;4.70;97.40;;;;;;5052132;28;20415;-69
2022/02/12 04:02:46;;;;;;;21.80;5.63;;;4.70;97.40;;;;;;5069386;28;20430;-69
2022/02/12 04:05:14;;;;;;;23.20;6.00;;;4.60;97.40;;;;;;5068952;28;20423;-72
2022/02/12 04:07:42;;;;;;;25.48;5.75;;;4.60;97.40;;;;;;5067545;28;20414;-69
2022/02/12 04:10:10;;;;;;;22.42;5.35;;;4.60;97.40;;;;;;5069869;28;20408;-72
2022/02/12 04:12:36;;;;;;;21.60;5.88;;;4.60;97.30;;;;;;5066590;28;20529;-70
2022/02/12 04:15:02;;;;;;;21.08;5.70;;;4.60;97.30;;;;;;5069380;28;20491;-70
2022/02/12 04:17:32;;;;;;;19.08;5.43;;;4.60;97.30;;;;;;5068992;28;20979;-70
2022/02/12 04:20:01;;;;;;;21.55;5.75;;;4.60;97.20;;;;;;5069488;28;20482;-72
2022/02/12 04:22:26;;;;;;;22.00;5.60;;;4.60;97.20;;;;;;5068418;28;20922;-71
2022/02/12 04:24:52;;;;;;;18.13;5.40;;;4.50;97.10;;;;;;5069667;28;20439;-72
2022/02/12 04:27:18;;;;;;;25.67;5.95;;;4.50;97.30;;;;;;5068219;28;20392;-70
2022/02/12 04:29:43;;;;;;;23.27;6.07;;;4.50;97.20;;;;;;5069472;28;20410;-70
2022/02/12 04:32:09;;;;;;;21.02;5.47;;;4.50;97.10;;;;;;5066828;28;20934;-71
2022/02/12 04:34:35;;;;;;;21.20;6.17;;;4.50;97.10;;;;;;5049803;28;20408;-70
2022/02/12 04:37:00;;;;;;;19.60;5.70;;;4.50;97.10;;;;;;5069528;28;20878;-70
2022/02/12 04:39:26;;;;;;;20.27;5.83;;;4.50;97.10;;;;;;5050012;28;20420;-70
2022/02/12 04:41:51;;;;;;;21.88;5.93;;;4.50;97.20;;;;;;5067770;28;20496;-71
2022/02/12 04:44:17;;;;;;;23.10;6.27;;;4.50;97.10;;;;;;5066490;28;20411;-71
2022/02/12 04:46:42;;;;;;;22.65;6.05;;;4.50;97.10;;;;;;5051432;28;20717;-71
2022/02/12 04:49:08;;;;;;;18.53;5.80;;;4.50;97.10;;;;;;5067346;28;20807;-69
2022/02/12 04:51:34;;;;;;;22.17;5.80;;;4.50;97.10;;;;;;5068568;28;20403;-73
2022/02/12 04:53:59;;;;;;;22.93;6.27;;;4.40;97.10;;;;;;5067401;28;20422;-72
2022/02/12 04:56:25;;;;;;;24.98;6.35;;;4.50;97.20;;;;;;5068687;28;20415;-75
2022/02/12 04:58:51;;;;;;;19.80;6.43;;;4.40;97.10;;;;;;5068291;28;20858;-70
2022/02/12 05:01:21;;;;;;;17.33;6.10;;;4.40;97.20;;;;;;5068232;28;20422;-73
2022/02/12 05:03:53;;;;;;;21.83;6.45;;;4.40;97.20;;;;;;5068098;28;20423;-72
2022/02/12 05:06:20;;;;;;;21.70;6.28;;;4.40;97.30;;;;;;5049106;28;20506;-72
2022/02/12 05:08:47;;;;;;;23.02;6.53;;;4.40;97.30;;;;;;5066978;28;20418;-69
2022/02/12 05:11:13;;;;;;;23.17;6.68;;;4.30;97.20;;;;;;5067202;28;20423;-71
2022/02/12 05:13:39;;;;;;;23.17;6.75;;;4.30;97.30;;;;;;5067364;28;20422;-70
2022/02/12 05:16:07;;;;;;;22.88;7.28;;;4.30;97.30;;;;;;5068620;28;20395;-72
2022/02/12 05:18:33;;;;;;;26.53;7.30;;;4.30;97.40;;;;;;5067344;28;20510;-72
2022/02/12 05:20:59;;;;;;;21.95;6.63;;;4.30;97.40;;;;;;5068257;28;20446;-71
2022/02/12 05:23:25;;;;;;;22.80;6.53;;;4.30;97.30;;;;;;5067523;28;20435;-71
2022/02/12 05:25:50;;;;;;;25.52;7.40;;;4.30;97.30;;;;;;5066538;28;20420;-71
2022/02/12 05:28:16;;;;;;;19.23;6.50;;;4.30;97.30;;;;;;5066003;28;20423;-70
2022/02/12 05:30:43;;;;;;;23.25;6.97;;;4.30;97.40;;;;;;5064532;28;20670;-72
2022/02/12 05:33:09;;;;;;;20.80;6.70;;;4.30;97.40;;;;;;5048429;28;20461;-72
2022/02/12 05:35:35;;;;;;;23.30;6.97;;;4.30;97.30;;;;;;5067623;28;20404;-71
2022/02/12 05:38:01;;;;;;;20.85;7.30;;;4.30;97.40;;;;;;5066545;28;20477;-70
2022/02/12 05:40:27;;;;;;;24.95;7.35;;;4.20;97.50;;;;;;5067535;28;20792;-72
2022/02/12 05:42:53;;;;;;;21.70;7.13;;;4.20;97.40;;;;;;5066559;28;20415;-69
2022/02/12 05:45:18;;;;;;;23.85;7.28;;;4.20;97.50;;;;;;5067839;28;20444;-71
2022/02/12 05:47:44;;;;;;;23.57;7.73;;;4.20;97.60;;;;;;5048839;28;20422;-73
2022/02/12 05:50:10;;;;;;;24.40;7.90;;;4.20;97.60;;;;;;5067773;28;20525;-72
2022/02/12 05:52:36;;;;;;;24.38;7.10;;;4.20;97.60;;;;;;5065928;28;20876;-71
2022/02/12 05:55:03;;;;;;;24.65;7.13;;;4.20;97.60;;;;;;5068015;28;20411;-71
2022/02/12 05:57:28;;;;;;;24.55;8.07;;;4.20;97.60;;;;;;5066538;28;20411;-73
2022/02/12 05:59:54;;;;;;;23.88;7.55;;;4.20;97.70;;;;;;5067581;28;20395;-75
2022/02/12 06:02:19;;;;;;;22.83;8.03;;;4.20;97.60;;;;;;5049090;28;20419;-70
2022/02/12 06:04:45;;;;;;;23.58;7.68;;;4.20;97.70;;;;;;5066393;28;20457;-72
2022/02/12 06:07:11;;;;;;;21.63;8.17;;;4.20;97.80;;;;;;5063227;28;20409;-70
2022/02/12 06:09:37;;;;;;;21.35;8.30;;;4.20;97.80;;;;;;5063098;28;20836;-71
2022/02/12 06:12:04;;;;;;;23.40;8.68;;;4.10;97.70;;;;;;5060214;28;20403;-71
2022/02/12 06:14:30;;;;;;;23.52;8.20;;;4.10;97.80;;;;;;5059276;28;20419;-71
2022/02/12 06:16:58;;;;;;;22.48;8.38;;;4.10;97.80;;;;;;5065876;28;20414;-72
2022/02/12 06:19:24;;;;;;;24.00;8.23;;;4.10;97.90;;;;;;5064548;28;20441;-70
2022/02/12 06:21:50;;;;;;;21.20;8.70;;;4.10;97.80;;;;;;5052335;28;20418;-74
2022/02/12 06:24:16;;;;;;;23.83;8.50;;;4.00;97.80;;;;;;5070360;28;20836;-73
2022/02/12 06:26:51;;;;;;;24.83;8.45;;;4.00;98.30;;;;;;5053148;28;20491;-72
2022/02/12 06:29:17;;;;;;;23.40;8.65;;;4.00;98.00;;;;;;5068679;28;20464;-73
2022/02/12 06:31:44;;;;;;;27.85;9.85;;;4.00;98.00;;;;;;5070908;28;20418;-71
2022/02/12 06:34:10;;;;;;;25.08;8.82;;;4.00;98.00;;;;;;5069918;28;20425;-71
2022/02/12 06:36:35;;;;;;;27.77;9.50;;;4.00;98.00;;;;;;5070904;28;20408;-70
2022/02/12 06:39:01;;;;;;;24.87;9.17;;;4.00;98.10;;;;;;5050893;28;20522;-71
2022/02/12 06:41:28;;;;;;;24.23;8.98;;;3.90;98.20;;;;;;5069984;28;20799;-71
2022/02/12 06:43:53;;;;;;;25.90;9.57;;;3.90;98.10;;;;;;5069737;28;21017;-72
2022/02/12 06:46:19;;;;;;;24.63;8.95;;;3.90;98.20;;;;;;5070912;28;20399;-71
2022/02/12 06:48:45;;;;;;;25.87;9.67;;;3.90;98.20;;;;;;5051876;28;20962;-70
2022/02/12 06:51:12;;;;;;;22.93;8.90;;;3.90;98.40;;;;;;5070314;28;20472;-71
2022/02/12 06:53:38;;;;;;;25.95;10.25;;;3.90;98.40;;;;;;5067939;28;20447;-69
2022/02/12 06:56:03;;;;;;;28.10;9.23;;;4.00;98.10;;;;;;5069553;28;20441;-69
2022/02/12 06:58:29;;;;;;;26.50;9.83;;;4.00;98.10;;;;;;5068969;28;20407;-71
2022/02/12 07:00:55;;;;;;;26.83;9.93;;;4.00;98.20;;;;;;5067315;28;20760;-71
2022/02/12 07:03:21;;;;;;;25.33;10.38;;;3.90;98.10;;;;;;5067298;28;20414;-70
2022/02/12 07:05:46;;;;;;;29.27;10.30;;;3.90;98.10;;;;;;5069740;28;20960;-71
2022/02/12 07:08:12;;;;;;;25.58;9.80;;;3.90;98.10;;;;;;5050694;28;20521;-69
2022/02/12 07:10:38;;;;;;;23.08;9.65;;;3.90;98.00;;;;;;5068367;28;20426;-70
2022/02/12 07:13:04;;;;;;;29.03;10.77;;;4.00;98.10;;;;;;5033479;28;20502;-67
2022/02/12 07:15:30;;;;;;;26.75;9.80;;;3.90;98.10;;;;;;5068678;28;20942;-69
2022/02/12 07:17:55;;;;;;;23.63;9.57;;;4.00;98.10;;;;;;5066471;28;20407;-68
2022/02/12 07:20:21;;;;;;;22.50;9.95;;;4.00;98.10;;;;;;5069366;28;20915;-71
2022/02/12 07:22:47;;;;;;;25.00;10.20;;;4.00;98.00;;;;;;5066093;28;20436;-71
2022/02/12 07:25:13;;;;;;;24.20;10.10;;;4.00;97.90;;;;;;5066448;28;20419;-70
2022/02/12 07:27:40;;;;;;;30.52;10.05;;;4.10;97.90;;;;;;5065641;28;20407;-69
2022/02/12 07:30:08;;;;;;;27.97;10.07;;;4.10;97.90;;;;;;5049765;28;20403;-72
2022/02/12 07:32:38;;;;;;;24.02;10.27;;;4.10;97.80;;;;;;5067367;28;20414;-68
2022/02/12 07:35:06;;;;;;;26.90;10.23;;;4.10;97.70;;;;;;5068705;28;20415;-70
2022/02/12 07:37:32;;;;;;;25.48;10.23;;;4.10;97.80;;;;;;5067535;28;20446;-70
2022/02/12 07:40:00;;;;;;;26.65;10.65;;;4.10;97.70;;;;;;5068491;28;20423;-69
2022/02/12 07:42:26;;;;;;;27.30;11.18;;;4.20;97.70;;;;;;5067984;28;20477;-69
2022/02/12 07:44:51;;;;;;;31.60;11.68;;;4.20;97.70;;;;;;5068380;28;20454;-72
2022/02/12 07:47:17;;;;;;;26.23;11.17;;;4.20;97.60;;;;;;5049739;28;20920;-69
2022/02/12 07:49:42;;;;;;;31.02;12.05;;;4.20;97.50;;;;;;5067757;28;20419;-70
2022/02/12 07:52:08;;;;;;;28.13;11.40;;;4.30;97.60;;;;;;5066768;28;20504;-72
2022/02/12 07:54:34;;;;;;;29.90;12.27;;;4.30;97.70;;;;;;5069500;28;20407;-74
2022/02/12 07:56:59;;;;;;;33.53;12.63;;;4.30;97.70;;;;;;5069407;28;20392;-71
2022/02/12 07:59:26;;;;;;;26.98;12.18;;;4.30;97.60;;;;;;5064547;28;20415;-69
2022/02/12 08:01:51;;;;;;;30.92;13.15;;;4.30;97.50;;;;;;5069446;28;20399;-69
2022/02/12 08:04:17;;;;;;;29.73;12.85;;;4.40;97.60;;;;;;5067787;28;20414;-70
2022/02/12 08:09:27;;;;;;;25.80;12.63;;;4.50;97.50;;;;;;5068508;28;20423;-69
2022/02/12 08:12:01;;;;;;;25.45;12.35;;;4.60;97.50;;;;;;5068203;28;20416;-71
2022/02/12 08:14:27;;;;;;;29.15;12.25;;;4.70;97.70;;;;;;5067956;28;20411;-72
2022/02/12 08:16:53;;;;;;;25.75;12.23;;;4.90;97.60;;;;;;5063718;28;20446;-72
2022/02/12 08:19:20;;;;;;;28.27;12.07;;;5.40;96.60;;;;;;5064971;28;20443;-70
2022/02/12 08:21:45;;;;;;;28.67;12.13;;;6.00;95.30;;;;;;5065691;28;21182;-69
2022/02/12 08:24:11;;;;;;;28.10;11.67;;;6.40;94.00;;;;;;5045991;28;20502;-69
2022/02/12 08:26:37;;;;;;;29.23;11.68;;;6.70;92.90;;;;;;5063436;28;20926;-70
2022/02/12 08:29:02;;;;;;;26.13;11.37;;;6.90;92.40;;;;;;5062044;28;20446;-70
2022/02/12 08:31:30;;;;;;;27.60;10.77;;;7.10;91.80;;;;;;5066554;28;20439;-69
2022/02/12 08:33:56;;;;;;;21.67;10.27;;;7.30;91.30;;;;;;5063456;28;20413;-70
2022/02/12 08:36:21;;;;;;;29.63;10.40;;;7.80;90.50;;;;;;5064578;28;20900;-72
2022/02/12 08:38:47;;;;;;;20.90;10.05;;;8.50;87.90;;;;;;5065085;28;20291;-71
2022/02/12 08:41:13;;;;;;;25.05;9.25;;;8.50;90.50;;;;;;5069627;28;20190;-70
2022/02/12 08:43:38;;;;;;;24.73;9.18;;;8.70;90.90;;;;;;5067827;28;20209;-70
2022/02/12 08:46:04;;;;;;;25.40;9.85;;;8.80;91.20;;;;;;5067419;28;20291;-69
2022/02/12 08:48:31;;;;;;;20.35;8.65;;;8.80;91.20;;;;;;5063439;28;20194;-69
2022/02/12 08:50:57;;;;;;;18.98;8.85;;;8.70;91.20;;;;;;5051174;28;20576;-71
2022/02/12 08:53:23;;;;;;;19.83;9.50;;;8.90;91.60;;;;;;5067417;28;20408;-72
2022/02/12 08:55:48;;;;;;;23.55;9.50;;;10.80;79.50;;;;;;5065377;28;20401;-69
2022/02/12 08:58:15;;;;;;;23.10;9.77;;;12.20;70.30;;;;;;5067807;28;20933;-71
2022/02/12 09:00:41;;;;;;;23.40;9.57;;;13.20;63.90;;;;;;5050187;28;20510;-70
2022/02/12 09:03:06;;;;;;;23.33;9.65;;;13.90;60.80;;;;;;5066545;28;20457;-69
2022/02/12 09:05:32;;;;;;;23.53;10.43;;;14.90;57.40;;;;;;5068890;28;20403;-69
2022/02/12 09:07:58;;;;;;;22.05;9.57;;;15.80;53.30;;;;;;5066907;28;20406;-68
2022/02/12 09:10:23;;;;;;;20.52;9.00;;;16.30;51.50;;;;;;5067138;28;20481;-70
2022/02/12 09:12:49;;;;;;;20.87;9.40;;;16.70;49.70;;;;;;5067200;28;20408;-67
2022/02/12 09:15:15;;;;;;;22.27;9.32;;;16.60;49.00;;;;;;5065987;28;20754;-69
2022/02/12 09:17:41;;;;;;;19.88;8.82;;;16.70;48.80;;;;;;5067494;28;20415;-69
2022/02/12 09:20:07;;;;;;;20.93;8.83;;;17.00;47.70;;;;;;5066598;28;20415;-69
2022/02/12 09:22:32;;;;;;;20.67;8.95;;;17.10;47.20;;;;;;5067106;28;20395;-71
2022/02/12 09:24:58;;;;;;;19.17;8.63;;;17.40;46.60;;;;;;5066852;28;20898;-68
2022/02/12 09:27:23;;;;;;;18.47;8.07;;;17.90;45.70;;;;;;5067754;28;20415;-69
2022/02/12 09:29:50;;;;;;;19.80;8.47;;;18.30;44.30;;;;;;5067064;28;20426;-69
2022/02/12 09:32:16;;;;;;;22.13;8.88;;;18.60;43.60;;;;;;5066697;28;20736;-68
2022/02/12 09:34:41;;;;;;;22.52;9.07;;;18.80;42.50;;;;;;5049206;28;20487;-69
2022/02/12 09:37:07;;;;;;;17.93;8.67;;;19.00;42.00;;;;;;5067176;28;20496;-69
2022/02/12 09:39:33;;;;;;;19.80;8.53;;;19.10;41.70;;;;;;5067857;28;20396;-68
2022/02/12 09:41:59;;;;;;;18.60;8.77;;;19.00;41.30;;;;;;5067618;28;20876;-71
2022/02/12 09:44:24;;;;;;;18.52;8.60;;;19.20;41.50;;;;;;5048846;28;20896;-68
2022/02/12 09:47:22;;;;;;;23.10;9.07;;;19.40;40.90;;;;;;5050217;28;20426;-71
2022/02/12 09:49:48;;;;;;;17.87;8.50;;;19.20;40.70;;;;;;5066331;28;20560;-70
2022/02/12 09:52:17;;;;;;;17.50;8.23;;;19.00;41.80;;;;;;5064990;28;20484;-73
2022/02/12 09:54:44;;;;;;;20.33;8.40;;;18.90;41.50;;;;;;5067425;28;20407;-72
2022/02/12 09:57:09;;;;;;;18.27;8.27;;;18.90;42.00;;;;;;5067453;28;20456;-71
2022/02/12 09:59:35;;;;;;;21.03;8.23;;;19.00;41.30;;;;;;5067728;28;20412;-72
2022/02/12 10:02:01;;;;;;;21.73;8.13;;;19.00;41.40;;;;;;5050118;28;20875;-68
2022/02/12 10:04:29;;;;;;;20.88;7.80;;;18.90;41.30;;;;;;5066983;28;20495;-72
2022/02/12 10:06:54;;;;;;;17.20;7.90;;;18.70;41.60;;;;;;5066426;28;20430;-70
2022/02/12 10:09:20;;;;;;;18.63;7.60;;;18.60;42.00;;;;;;5067625;28;20418;-71
2022/02/12 10:11:50;;;;;;;18.87;7.43;;;18.50;42.00;;;;;;5068369;28;20411;-71
2022/02/12 10:14:25;;;;;;;16.35;7.43;;;18.40;42.00;;;;;;5049115;28;20523;-70
2022/02/12 10:17:02;;;;;;;18.02;7.70;;;18.00;42.60;;;;;;5067969;28;20400;-70
2022/02/12 10:19:33;;;;;;;20.10;7.80;;;17.60;44.00;;;;;;5066793;28;20411;-70
2022/02/12 10:22:15;;;;;;;15.10;6.97;;;17.50;44.20;;;;;;5068097;28;20902;-71
2022/02/12 10:24:53;;;;;;;17.58;7.35;;;17.60;44.40;;;;;;5067856;28;20421;-71
2022/02/12 10:27:24;;;;;;;20.08;7.40;;;17.70;44.10;;;;;;5082311;28;20527;-70
2022/02/12 10:29:51;;;;;;;18.58;7.30;;;17.90;44.00;;;;;;5067631;28;20940;-70
2022/02/12 10:32:20;;;;;;;16.85;6.80;;;18.20;43.90;;;;;;5067097;28;20492;-70
2022/02/12 10:34:47;;;;;;;17.33;6.97;;;18.40;42.60;;;;;;5064194;28;20405;-71
2022/02/12 10:37:16;;;;;;;14.93;6.30;;;18.50;42.90;;;;;;5064692;28;20419;-70
2022/02/12 10:39:49;;;;;;;15.70;6.80;;;18.90;42.20;;;;;;5046322;28;20919;-69
2022/02/12 10:42:17;;;;;;;16.45;6.40;;;19.20;41.20;;;;;;5065638;28;20765;-68
2022/02/12 10:44:43;;;;;;;15.37;6.10;;;19.40;40.10;;;;;;5066714;28;20399;-69
2022/02/12 10:47:13;;;;;;;17.13;5.95;;;19.40;39.50;;;;;;5066647;28;20415;-68
2022/02/12 10:49:42;;;;;;;18.13;6.20;;;19.30;39.20;;;;;;5065982;28;20461;-68
2022/02/12 10:52:08;;;;;;;14.60;6.10;;;19.00;39.80;;;;;;5066834;28;20407;-68
2022/02/12 10:54:45;;;;;;;15.02;6.07;;;18.90;40.80;;;;;;5066276;28;20431;-68
2022/02/12 10:57:12;;;;;;;14.35;6.32;;;18.60;40.10;;;;;;5065533;28;20880;-68
2022/02/12 10:59:42;;;;;;;18.20;6.27;;;18.20;41.20;;;;;;5064417;28;20407;-68
2022/02/12 11:02:15;;;;;;;16.45;6.68;;;18.00;41.80;;;;;;5066133;28;20433;-69
2022/02/12 11:04:42;;;;;;;15.50;6.75;;;17.90;42.40;;;;;;5067694;28;20415;-68
2022/02/12 11:07:13;;;;;;;15.47;6.43;;;17.70;42.30;;;;;;5069615;28;20458;-68
2022/02/12 11:09:39;;;;;;;15.88;6.07;;;17.60;43.00;;;;;;5069033;28;20899;-67
2022/02/12 11:12:06;;;;;;;14.25;6.43;;;17.60;42.80;;;;;;5052004;28;20403;-68
2022/02/12 11:14:33;;;;;;;13.45;5.90;;;17.70;42.60;;;;;;5070578;28;20415;-68
2022/02/12 11:17:02;;;;;;;16.58;6.55;;;18.00;42.50;;;;;;5070053;28;20473;-69
2022/02/12 11:19:30;;;;;;;15.23;6.55;;;18.20;42.10;;;;;;5071021;28;20435;-69
2022/02/12 11:21:55;;;;;;;16.40;6.35;;;18.20;41.40;;;;;;5070968;28;20399;-68
2022/02/12 11:24:44;;;;;;;14.95;6.38;;;17.90;42.00;;;;;;5068749;28;20442;-70
2022/02/12 11:27:14;;;;;;;16.83;5.88;;;17.70;42.40;;;;;;5069006;28;20815;-71
2022/02/12 11:29:41;;;;;;;15.48;5.47;;;17.70;42.10;;;;;;5051603;28;20411;-68
2022/02/12 11:32:13;;;;;;;15.15;5.53;;;17.80;42.00;;;;;;5070025;28;20419;-68
2022/02/12 11:35:02;;;;;;;11.52;5.45;;;17.80;41.50;;;;;;5051393;28;20840;-68
2022/02/12 11:37:33;;;;;;;15.02;5.50;;;18.00;42.10;;;;;;5068670;28;20407;-67
2022/02/12 11:40:24;;;;;;;14.80;5.20;;;18.40;41.30;;;;;;5070504;28;20408;-68
2022/02/12 11:43:03;;;;;;;16.88;5.05;;;18.60;43.20;;;;;;5051150;28;20411;-68
2022/02/12 11:45:34;;;;;;;14.70;5.28;;;18.50;42.80;;;;;;5051880;28;20420;-68
2022/02/12 11:48:27;;;;;;;10.70;4.20;;;18.20;44.10;;;;;;5068770;28;20191;-69
2022/02/12 11:51:05;;;;;;;13.02;4.70;;;17.20;45.90;;;;;;5070506;28;20225;-69
2022/02/12 11:53:39;;;;;;;11.70;4.50;;;16.50;46.80;;;;;;5070390;28;20210;-68
2022/02/12 11:56:15;;;;;;;10.48;4.35;;;15.90;47.30;;;;;;5052600;28;20190;-68
2022/02/12 11:58:46;;;;;;;14.48;4.40;;;15.70;47.70;;;;;;5070531;28;20186;-69
2022/02/12 12:01:35;;;;;;;11.13;4.35;;;15.40;48.10;;;;;;5069980;28;20269;-69
2022/02/12 12:04:16;;;;;;;9.38;4.07;;;15.30;48.30;;;;;;5070605;28;20241;-68
2022/02/12 12:07:03;;;;;;;11.95;4.50;;;15.40;48.90;;;;;;5071348;28;20190;-69
2022/02/12 12:09:34;;;;;;;12.48;4.47;;;15.60;48.40;;;;;;5069614;28;20834;-70
2022/02/12 12:12:19;;;;;;;12.93;4.55;;;15.60;48.10;;;;;;5069015;28;20191;-70
2022/02/12 12:14:46;;;;;;;9.40;3.97;;;15.70;48.00;;;;;;5070305;28;20233;-69
2022/02/12 12:17:13;;;;;;;10.73;4.25;;;15.90;48.30;;;;;;5067067;28;20494;-69
2022/02/12 12:19:48;;;;;;;11.67;3.90;;;17.30;43.50;;;;;;5050367;28;20768;-69
2022/02/12 12:22:15;;;;;;;10.70;3.90;;;18.10;41.80;;;;;;5068539;28;20394;-69
2022/02/12 12:24:40;;;;;;;9.10;3.40;;;18.40;40.50;;;;;;5068361;28;20887;-70
2022/02/12 12:27:07;;;;;;;11.05;3.80;;;18.60;39.30;;;;;;5068202;28;20428;-69
2022/02/12 12:32:22;;;;;;;9.63;3.40;;;18.70;39.50;;;;;;5068696;28;20404;-69
2022/02/12 12:34:52;;;;;;;7.88;2.90;;;18.90;38.40;;;;;;5066432;28;20423;-69
2022/02/12 12:37:20;;;;;;;6.95;2.58;;;18.70;36.50;;;;;;5068721;28;20422;-69
2022/02/12 12:39:46;;;;;;;8.05;2.72;;;18.50;36.00;;;;;;5068185;28;20740;-69
2022/02/12 12:42:17;;;;;;;9.37;2.83;;;18.00;35.20;;;;;;5068163;28;20900;-68
2022/02/12 12:44:44;;;;;;;9.18;2.80;;;17.30;36.60;;;;;;5066216;28;20408;-69
2022/02/12 12:47:10;;;;;;;9.60;2.70;;;16.80;37.20;;;;;;5049774;28;20415;-69
2022/02/12 12:49:41;;;;;;;7.50;2.60;;;16.30;38.80;;;;;;5067332;28;20772;-69
2022/02/12 12:52:12;;;;;;;9.00;2.73;;;15.90;39.30;;;;;;5065724;28;20430;-69
2022/02/12 12:54:40;;;;;;;7.57;2.83;;;16.00;39.80;;;;;;5067148;28;20436;-69